Bee Caves, Texas
Current Conditions -  °F | °C
As of 3:35 AM on Monday 22 Dec 2014 (Local Time) from KRYW Reporting Station
Overcast Overcast  
Wind Chill: 57°   Ceiling: 1000
Heat Index: 57°   Visibility: 10mi
Dew Point: 53°   Wind: 10mph
Humidity: 85%   Direction: 210°SSW
Pressure: 29.75"   Gusts: 21mph
Location:  30.3763°N, 97.9464°W
Report Text: KRYW 220935Z AUTO 21009G18KT 10SM OVC010 14/12 A2975 RMK AO2 T01400115
Loading
Personal Weather Stations






























Interactive Weather Map New forecast layout! Learn more

10-Day Weather Forecast

Advertisements
Track Severe Weather on mobile